createdAt,value
2023-04-11T00:01:58.693Z,1.00
2023-04-11T00:04:28.723Z,1.00
2023-04-11T00:06:57.372Z,1.00
2023-04-11T00:09:25.489Z,1.00
2023-04-11T00:11:53.713Z,1.00
2023-04-11T00:14:21.896Z,1.00
2023-04-11T00:16:53.706Z,1.00
2023-04-11T00:19:23.394Z,1.00
2023-04-11T00:21:57.563Z,1.00
2023-04-11T00:24:26.052Z,1.00
2023-04-11T00:26:54.209Z,1.00
2023-04-11T00:29:22.383Z,1.00
2023-04-11T00:31:51.440Z,1.00
2023-04-11T00:34:20.905Z,1.00
2023-04-11T00:36:49.290Z,1.00
2023-04-11T00:39:20.426Z,1.00
2023-04-11T00:41:48.640Z,1.00
2023-04-11T00:44:17.052Z,1.00
2023-04-11T00:46:47.006Z,1.00
2023-04-11T00:49:16.630Z,1.00
2023-04-11T00:51:44.865Z,1.00
2023-04-11T00:54:13.304Z,1.00
2023-04-11T00:56:43.014Z,1.00
2023-04-11T00:59:11.642Z,1.00
2023-04-11T01:01:39.986Z,1.00
2023-04-11T01:04:08.595Z,1.00
2023-04-11T01:06:37.461Z,1.00
2023-04-11T01:09:06.341Z,1.00
2023-04-11T01:11:35.312Z,1.00
2023-04-11T01:14:05.136Z,1.00
2023-04-11T01:16:33.451Z,1.00
2023-04-11T01:19:01.712Z,1.00
2023-04-11T01:21:29.951Z,1.00
2023-04-11T01:24:03.738Z,1.00
2023-04-11T01:26:32.148Z,1.00
2023-04-11T01:29:04.056Z,1.00
2023-04-11T01:31:32.935Z,1.00
2023-04-11T01:34:05.191Z,1.00
2023-04-11T01:36:33.437Z,1.00
2023-04-11T01:39:03.123Z,1.00
2023-04-11T01:41:32.028Z,1.00
2023-04-11T01:44:02.749Z,1.00
2023-04-11T01:46:31.501Z,1.00
2023-04-11T01:49:01.185Z,1.00
2023-04-11T01:51:29.557Z,1.00
2023-04-11T01:53:57.791Z,1.00
2023-04-11T01:56:27.349Z,1.00
2023-04-11T01:58:59.108Z,1.00
2023-04-11T02:01:27.738Z,1.00
2023-04-11T02:03:56.073Z,1.00
2023-04-11T02:06:24.358Z,1.00
2023-04-11T02:08:52.850Z,1.00
2023-04-11T02:11:22.568Z,1.00
2023-04-11T02:13:52.946Z,1.00
2023-04-11T02:16:25.846Z,1.00
2023-04-11T02:18:54.941Z,1.00
2023-04-11T02:21:23.421Z,1.00
2023-04-11T02:23:51.631Z,1.00
2023-04-11T02:26:19.786Z,1.00
2023-04-11T02:28:48.008Z,1.00
2023-04-11T02:31:17.765Z,1.00
2023-04-11T02:33:46.044Z,1.00
2023-04-11T02:36:14.506Z,1.00
2023-04-11T02:38:42.750Z,1.00
2023-04-11T02:41:10.913Z,1.00
2023-04-11T02:43:39.081Z,1.00
2023-04-11T02:46:12.488Z,1.00
2023-04-11T02:48:46.453Z,1.00
2023-04-11T02:51:15.336Z,1.00
2023-04-11T02:53:43.554Z,1.00
2023-04-11T02:56:19.070Z,1.00
2023-04-11T02:58:50.046Z,1.00
2023-04-11T03:01:21.738Z,1.00
2023-04-11T03:03:51.684Z,1.00
2023-04-11T03:06:23.334Z,1.00
2023-04-11T03:08:57.433Z,1.00
2023-04-11T03:11:26.142Z,1.00
2023-04-11T03:13:54.445Z,1.00
2023-04-11T03:16:22.759Z,1.80
2023-04-11T03:18:56.330Z,1.00
2023-04-11T03:21:24.734Z,1.00
2023-04-11T03:23:53.073Z,1.00
2023-04-11T03:26:21.878Z,1.00
2023-04-11T03:28:50.347Z,1.00
2023-04-11T03:31:20.861Z,1.00
2023-04-11T03:33:52.360Z,1.00
2023-04-11T03:36:22.507Z,1.00
2023-04-11T03:38:51.174Z,1.00
2023-04-11T03:41:20.500Z,1.00
2023-04-11T03:43:49.280Z,1.00
2023-04-11T03:46:21.550Z,1.00
2023-04-11T03:48:50.016Z,3.20
2023-04-11T03:51:21.408Z,13.80
2023-04-11T03:54:01.498Z,15.10
2023-04-11T03:56:34.606Z,17.20
2023-04-11T03:59:02.985Z,43.30
2023-04-11T04:01:40.746Z,55.20
2023-04-11T04:04:09.179Z,64.60
2023-04-11T04:06:42.119Z,71.90
2023-04-11T04:09:11.370Z,65.80
2023-04-11T04:11:56.001Z,90.20
2023-04-11T04:14:33.495Z,92.10
2023-04-11T04:17:02.090Z,94.80
2023-04-11T04:19:31.571Z,93.20
2023-04-11T04:22:01.309Z,99.90
2023-04-11T04:24:38.472Z,99.90
2023-04-11T04:27:20.626Z,99.90
2023-04-11T04:29:53.792Z,99.90
2023-04-11T04:32:45.112Z,98.10
2023-04-11T04:35:16.771Z,99.90
2023-04-11T04:37:47.127Z,99.90
2023-04-11T04:40:40.235Z,99.90
2023-04-11T04:43:11.658Z,99.90
2023-04-11T04:45:50.144Z,99.90
2023-04-11T04:48:25.656Z,99.90
2023-04-11T04:50:54.402Z,99.90
2023-04-11T04:53:23.982Z,99.90
2023-04-11T04:55:57.110Z,99.90
2023-04-11T04:58:27.670Z,99.90
2023-04-11T05:00:56.564Z,95.30
2023-04-11T05:03:30.572Z,91.50
2023-04-11T05:05:59.678Z,60.30
2023-04-11T05:08:29.563Z,49.70
2023-04-11T05:11:02.125Z,7.00
2023-04-11T05:13:32.718Z,1.00
2023-04-11T05:16:01.001Z,10.10
2023-04-11T05:18:30.710Z,11.50
2023-04-11T05:20:59.517Z,67.60
2023-04-11T05:23:36.322Z,66.70
2023-04-11T05:26:05.533Z,72.40
2023-04-11T05:28:38.114Z,99.90
2023-04-11T05:31:12.220Z,99.90
2023-04-11T05:33:42.322Z,87.60
2023-04-11T05:36:14.386Z,84.50
2023-04-11T05:38:45.471Z,64.60
2023-04-11T05:41:14.350Z,1.00
2023-04-11T05:43:45.752Z,1.00
2023-04-11T05:46:14.188Z,1.00
2023-04-11T05:48:43.190Z,1.00
2023-04-11T05:51:11.636Z,1.00
2023-04-11T05:53:40.092Z,1.00
2023-04-11T05:56:21.943Z,99.90
2023-04-11T05:58:50.329Z,99.90
2023-04-11T06:01:22.289Z,49.40
2023-04-11T06:03:50.915Z,99.90
2023-04-11T06:06:19.658Z,1.00
2023-04-11T06:08:48.569Z,1.00
2023-04-11T06:11:19.868Z,99.90
2023-04-11T06:13:48.278Z,99.90
2023-04-11T06:16:20.555Z,1.00
2023-04-11T06:18:49.129Z,1.00
2023-04-11T06:21:19.646Z,1.00
2023-04-11T06:23:50.785Z,99.90
2023-04-11T06:26:32.991Z,99.90
2023-04-11T06:29:02.297Z,99.90
2023-04-11T06:31:34.425Z,99.90
2023-04-11T06:34:03.137Z,99.90
2023-04-11T06:36:31.626Z,99.90
2023-04-11T06:39:03.641Z,99.90
2023-04-11T06:41:33.615Z,99.90
2023-04-11T06:44:04.451Z,99.90
2023-04-11T06:46:34.871Z,99.90
2023-04-11T06:49:06.933Z,99.90
2023-04-11T06:51:41.403Z,99.90
2023-04-11T06:54:10.440Z,99.90
2023-04-11T06:56:42.530Z,99.90
2023-04-11T06:59:13.711Z,99.90
2023-04-11T07:01:46.957Z,99.90
2023-04-11T07:04:18.466Z,99.90
2023-04-11T07:06:53.005Z,99.90
2023-04-11T07:09:23.031Z,99.90
2023-04-11T07:12:12.950Z,99.90
2023-04-11T07:14:46.440Z,99.90
2023-04-11T07:17:31.943Z,99.90
2023-04-11T07:20:20.772Z,99.90
2023-04-11T07:23:00.778Z,99.90
2023-04-11T07:26:02.299Z,99.90
2023-04-11T07:28:51.249Z,99.90
2023-04-11T07:31:50.020Z,99.90
2023-04-11T07:34:57.225Z,99.90
2023-04-11T07:37:57.896Z,99.90
2023-04-11T07:40:32.608Z,99.90
2023-04-11T07:43:08.845Z,99.90
2023-04-11T07:45:41.989Z,99.90
2023-04-11T07:48:18.051Z,99.90
2023-04-11T07:50:46.564Z,99.90
2023-04-11T07:53:15.273Z,99.90
2023-04-11T07:55:43.953Z,99.90
2023-04-11T07:58:18.526Z,99.90
2023-04-11T08:00:52.409Z,99.90
2023-04-11T08:03:24.410Z,99.90
2023-04-11T08:05:53.269Z,99.90
2023-04-11T08:08:25.361Z,99.90
2023-04-11T08:11:00.832Z,99.90
2023-04-11T08:13:30.548Z,99.90
2023-04-11T08:16:00.421Z,99.90
2023-04-11T08:18:30.064Z,99.90
2023-04-11T08:20:58.556Z,99.90
2023-04-11T08:23:29.199Z,99.90
2023-04-11T08:26:01.462Z,99.90
2023-04-11T08:28:30.136Z,99.90
2023-04-11T08:31:04.336Z,99.90
2023-04-11T08:33:37.975Z,99.90
2023-04-11T08:36:10.638Z,99.90
2023-04-11T08:38:40.574Z,99.90
2023-04-11T08:41:13.345Z,99.90
2023-04-11T08:43:45.981Z,99.90
2023-04-11T08:46:22.178Z,99.90
2023-04-11T08:48:53.594Z,99.90
2023-04-11T08:51:29.040Z,99.90
2023-04-11T08:54:00.721Z,99.90
2023-04-11T08:56:29.362Z,99.90
2023-04-11T08:58:57.926Z,99.90
2023-04-11T09:01:30.520Z,99.90
2023-04-11T09:04:02.775Z,99.90
2023-04-11T09:06:33.956Z,99.90
2023-04-11T09:09:06.626Z,99.90
2023-04-11T09:11:53.109Z,99.90
2023-04-11T09:14:26.463Z,99.90
2023-04-11T09:16:58.025Z,99.90
2023-04-11T09:19:27.440Z,96.70
2023-04-11T09:21:56.934Z,96.90
2023-04-11T09:24:26.429Z,94.20
2023-04-11T09:27:12.226Z,88.90
2023-04-11T09:29:45.609Z,94.10
2023-04-11T09:32:32.779Z,94.90
2023-04-11T09:35:12.233Z,95.20
2023-04-11T09:37:46.944Z,95.40
2023-04-11T09:40:16.666Z,95.90
2023-04-11T09:42:47.889Z,91.40
2023-04-11T09:45:20.713Z,91.00
2023-04-11T09:47:51.384Z,93.30
2023-04-11T09:50:20.635Z,89.40
2023-04-11T09:52:49.517Z,92.20
2023-04-11T09:55:20.568Z,90.30
2023-04-11T09:57:50.441Z,86.70
2023-04-11T10:00:30.220Z,87.50
2023-04-11T10:03:00.595Z,88.50
2023-04-11T10:05:32.371Z,89.60
2023-04-11T10:08:04.988Z,91.20
2023-04-11T10:10:35.928Z,90.40
2023-04-11T10:13:04.707Z,88.80
2023-04-11T10:15:33.271Z,83.70
2023-04-11T10:18:13.867Z,90.00
2023-04-11T10:20:46.785Z,90.40
2023-04-11T10:23:16.174Z,87.60
2023-04-11T10:25:52.738Z,72.10
2023-04-11T10:28:38.864Z,71.60
2023-04-11T10:31:10.014Z,74.60
2023-04-11T10:34:15.455Z,69.30
2023-04-11T10:37:07.429Z,72.70
2023-04-11T10:40:09.987Z,72.80
2023-04-11T10:42:40.640Z,60.50
2023-04-11T10:45:16.305Z,66.70
2023-04-11T10:47:44.794Z,63.90
2023-04-11T10:50:38.146Z,60.90
2023-04-11T10:53:07.611Z,65.60
2023-04-11T10:55:47.386Z,65.80
2023-04-11T10:58:19.516Z,61.50
2023-04-11T11:01:31.548Z,63.30
2023-04-11T11:04:01.073Z,62.80
2023-04-11T11:06:31.180Z,60.80
2023-04-11T11:09:01.529Z,59.80
2023-04-11T11:11:31.913Z,60.00
2023-04-11T11:14:01.540Z,61.50
2023-04-11T11:16:32.238Z,65.60
2023-04-11T11:19:06.563Z,61.30
2023-04-11T11:21:36.404Z,67.30
2023-04-11T11:24:08.981Z,57.60
2023-04-11T11:26:38.601Z,53.60
2023-04-11T11:29:09.410Z,56.30
2023-04-11T11:31:39.676Z,45.00
2023-04-11T11:34:22.985Z,48.60
2023-04-11T11:36:56.521Z,44.90
2023-04-11T11:39:27.343Z,50.10
2023-04-11T11:41:56.558Z,47.30
2023-04-11T11:44:29.693Z,51.90
2023-04-11T11:47:09.410Z,49.00
2023-04-11T11:49:54.945Z,50.60
2023-04-11T11:52:43.716Z,45.00
2023-04-11T11:55:36.682Z,43.00
2023-04-11T11:58:05.934Z,49.10
2023-04-11T12:00:41.666Z,44.90
2023-04-11T12:03:13.628Z,39.40
2023-04-11T12:05:44.377Z,44.70
2023-04-11T12:08:17.296Z,43.70
2023-04-11T12:10:48.118Z,42.50
2023-04-11T12:13:20.766Z,43.30
2023-04-11T12:15:53.051Z,37.50
2023-04-11T12:18:22.986Z,44.10
2023-04-11T12:20:51.989Z,37.80
2023-04-11T12:23:28.729Z,46.90
2023-04-11T12:26:12.380Z,51.90
2023-04-11T12:28:41.092Z,48.70
2023-04-11T12:31:16.640Z,46.30
2023-04-11T12:33:48.008Z,50.10
2023-04-11T12:36:16.514Z,49.00
2023-04-11T12:38:46.595Z,49.60
2023-04-11T12:43:48.323Z,46.30
2023-04-11T12:46:17.380Z,51.70
2023-04-11T12:48:48.192Z,49.30
2023-04-11T12:51:16.781Z,44.30
2023-04-11T12:53:52.925Z,47.20
2023-04-11T12:56:21.404Z,51.00
2023-04-11T12:58:49.952Z,70.90
2023-04-11T13:01:18.451Z,48.80
2023-04-11T13:03:47.022Z,50.60
2023-04-11T13:06:20.429Z,52.00
2023-04-11T13:08:50.639Z,46.00
2023-04-11T13:11:19.130Z,44.10
2023-04-11T13:13:48.450Z,44.90
2023-04-11T13:16:19.953Z,46.00
2023-04-11T13:18:49.209Z,53.10
2023-04-11T13:21:20.931Z,51.20
2023-04-11T13:23:50.755Z,50.20
2023-04-11T13:26:22.354Z,51.40
2023-04-11T13:28:51.312Z,52.20
2023-04-11T13:31:37.865Z,50.50
2023-04-11T13:34:06.267Z,47.40
2023-04-11T13:36:35.734Z,56.10
2023-04-11T13:39:08.129Z,52.40
2023-04-11T13:41:36.683Z,52.10
2023-04-11T13:44:05.058Z,53.40
2023-04-11T13:46:33.529Z,52.80
2023-04-11T13:49:01.979Z,55.00
2023-04-11T13:51:33.074Z,52.10
2023-04-11T13:54:01.856Z,45.80
2023-04-11T13:56:38.026Z,51.80
2023-04-11T13:59:06.480Z,49.50
2023-04-11T14:01:34.828Z,48.10
2023-04-11T14:04:03.361Z,46.60
2023-04-11T14:06:31.732Z,46.30
2023-04-11T14:09:00.112Z,49.90
2023-04-11T14:11:28.448Z,43.80
2023-04-11T14:14:00.614Z,44.80
2023-04-11T14:16:32.696Z,39.30
2023-04-11T14:19:01.080Z,38.70
2023-04-11T14:21:29.551Z,39.60
2023-04-11T14:23:58.267Z,39.90
2023-04-11T14:26:27.050Z,41.10
2023-04-11T14:28:57.437Z,43.40
2023-04-11T14:31:34.506Z,35.50
2023-04-11T14:34:03.173Z,38.30
2023-04-11T14:36:35.059Z,37.70
2023-04-11T14:39:06.348Z,37.90
2023-04-11T14:41:51.701Z,42.40
2023-04-11T14:44:23.263Z,40.20
2023-04-11T14:46:54.092Z,37.60
2023-04-11T14:49:26.633Z,37.80
2023-04-11T14:51:55.257Z,35.60
2023-04-11T14:54:26.162Z,34.50
2023-04-11T14:57:00.940Z,38.40
2023-04-11T14:59:29.418Z,35.30
2023-04-11T15:02:03.717Z,37.70
2023-04-11T15:04:34.472Z,40.60
2023-04-11T15:07:06.047Z,39.10
2023-04-11T15:09:36.699Z,41.40
2023-04-11T15:12:11.649Z,36.90
2023-04-11T15:14:39.996Z,37.40
2023-04-11T15:17:09.871Z,41.00
2023-04-11T15:19:41.424Z,39.30
2023-04-11T15:22:09.854Z,38.70
2023-04-11T15:24:38.427Z,43.00
2023-04-11T15:27:08.542Z,39.70
2023-04-11T15:29:37.231Z,39.60
2023-04-11T15:32:05.541Z,43.80
2023-04-11T15:34:37.347Z,43.50
2023-04-11T15:37:11.786Z,40.80
2023-04-11T15:39:43.348Z,40.10
2023-04-11T15:42:13.618Z,44.30
2023-04-11T15:44:42.122Z,43.50
2023-04-11T15:47:11.907Z,45.30
2023-04-11T15:49:42.084Z,44.70
2023-04-11T15:52:11.962Z,44.90
2023-04-11T15:54:40.496Z,45.30
2023-04-11T15:57:08.954Z,50.10
2023-04-11T15:59:40.396Z,48.10
2023-04-11T16:02:09.017Z,48.40
2023-04-11T16:04:39.173Z,50.60
2023-04-11T16:07:09.576Z,50.00
2023-04-11T16:09:39.260Z,52.30
2023-04-11T16:12:07.833Z,53.30
2023-04-11T16:14:36.413Z,55.90
2023-04-11T16:17:04.752Z,57.70
2023-04-11T16:19:33.311Z,59.90
2023-04-11T16:22:05.619Z,58.60
2023-04-11T16:24:39.750Z,60.70
2023-04-11T16:27:08.323Z,58.00
2023-04-11T16:29:39.138Z,59.70
2023-04-11T16:32:25.040Z,60.20
2023-04-11T16:34:55.108Z,64.90
2023-04-11T16:37:23.847Z,49.50
2023-04-11T16:39:57.923Z,60.20
2023-04-11T16:42:30.783Z,67.10
2023-04-11T16:45:03.178Z,83.90
2023-04-11T16:47:31.895Z,76.80
2023-04-11T16:50:02.462Z,80.60
2023-04-11T16:52:33.944Z,75.10
2023-04-11T16:55:09.372Z,79.80
2023-04-11T16:57:37.745Z,77.90
2023-04-11T17:00:17.229Z,78.10
2023-04-11T17:02:49.951Z,85.60
2023-04-11T17:05:19.431Z,86.20
2023-04-11T17:07:47.809Z,81.40
2023-04-11T17:10:17.806Z,89.10
2023-04-11T17:12:46.184Z,99.90
2023-04-11T17:15:14.850Z,92.20
2023-04-11T17:17:44.961Z,98.40
2023-04-11T17:20:14.794Z,99.90
2023-04-11T17:22:44.608Z,99.90
2023-04-11T17:25:13.232Z,99.90
2023-04-11T17:27:45.086Z,99.90
2023-04-11T17:30:14.009Z,99.90
2023-04-11T17:32:42.564Z,99.90
2023-04-11T17:35:12.047Z,99.90
2023-04-11T17:37:40.430Z,99.90
2023-04-11T17:40:14.540Z,99.90
2023-04-11T17:42:52.354Z,99.90
2023-04-11T17:45:21.774Z,99.90
2023-04-11T17:47:50.405Z,99.90
2023-04-11T17:50:21.424Z,99.90
2023-04-11T17:52:50.173Z,99.90
2023-04-11T17:56:13.732Z,99.90
2023-04-11T17:59:03.429Z,1.00
2023-04-11T18:01:32.532Z,1.00
2023-04-11T18:04:02.031Z,1.00
2023-04-11T18:06:34.302Z,1.00
2023-04-11T18:09:07.138Z,1.00
2023-04-11T18:11:36.433Z,1.00
2023-04-11T18:14:51.214Z,24.00
2023-04-11T18:17:22.879Z,99.90
2023-04-11T18:20:00.591Z,1.00
2023-04-11T18:22:29.250Z,1.00
2023-04-11T18:25:16.112Z,1.00
2023-04-11T18:27:50.425Z,1.00
2023-04-11T18:30:20.346Z,1.00
2023-04-11T18:32:55.516Z,1.00
2023-04-11T18:35:31.184Z,1.00
2023-04-11T18:38:02.159Z,1.00
2023-04-11T18:40:37.993Z,1.00
2023-04-11T18:43:07.484Z,1.00
2023-04-11T18:45:43.215Z,1.00
2023-04-11T18:48:13.866Z,1.00
2023-04-11T18:50:50.428Z,1.00
2023-04-11T18:53:22.244Z,1.00
2023-04-11T18:56:03.081Z,1.00
2023-04-11T18:59:05.939Z,1.00
2023-04-11T19:01:48.585Z,1.00
2023-04-11T19:04:17.860Z,1.00
2023-04-11T19:06:52.390Z,1.00
2023-04-11T19:09:22.144Z,1.00
2023-04-11T19:11:54.873Z,99.90
2023-04-11T19:14:34.288Z,99.90
2023-04-11T19:17:04.730Z,99.90
2023-04-11T19:19:35.491Z,99.90
2023-04-11T19:22:04.174Z,99.90
2023-04-11T19:24:33.031Z,99.90
2023-04-11T19:27:03.151Z,99.90
2023-04-11T19:29:38.293Z,99.90
2023-04-11T19:36:51.990Z,99.90
2023-04-11T19:39:20.312Z,1.00
2023-04-11T19:41:48.669Z,1.00
2023-04-11T19:44:17.258Z,1.00
2023-04-11T19:46:45.590Z,1.00
2023-04-11T19:49:16.631Z,40.40
2023-04-11T19:51:45.006Z,99.90
2023-04-11T19:54:13.313Z,99.90
2023-04-11T19:56:45.328Z,99.90
2023-04-11T19:59:13.734Z,1.00
2023-04-11T20:01:42.472Z,1.00
2023-04-11T20:04:11.187Z,99.90
2023-04-11T20:06:44.002Z,99.90
2023-04-11T20:09:12.783Z,99.90
2023-04-11T20:11:43.712Z,99.90
2023-04-11T20:14:12.422Z,99.90
2023-04-11T20:16:41.410Z,99.90
2023-04-11T20:19:09.765Z,99.90
2023-04-11T20:21:38.126Z,99.90
2023-04-11T20:24:10.557Z,99.90
2023-04-11T20:26:38.769Z,1.00
2023-04-11T20:29:07.950Z,1.00
2023-04-11T20:31:36.383Z,1.00
2023-04-11T20:34:04.579Z,99.90
2023-04-11T20:36:33.824Z,99.90
2023-04-11T20:39:02.037Z,99.90
2023-04-11T20:41:32.376Z,99.90
2023-04-11T20:44:00.796Z,99.90
2023-04-11T20:46:29.842Z,1.00
2023-04-11T20:48:58.475Z,1.00
2023-04-11T20:51:26.778Z,1.00
2023-04-11T20:53:55.201Z,1.00
2023-04-11T20:56:23.915Z,1.80
2023-04-11T20:58:55.914Z,69.60
2023-04-11T21:01:24.913Z,1.00
2023-04-11T21:03:54.243Z,58.40
2023-04-11T21:06:22.680Z,1.00
2023-04-11T21:08:51.547Z,1.00
2023-04-11T21:11:19.876Z,1.00
2023-04-11T21:13:50.570Z,1.00
2023-04-11T21:16:21.822Z,99.90
2023-04-11T21:18:50.509Z,1.00
2023-04-11T21:21:18.878Z,1.00
2023-04-11T21:23:47.137Z,1.00
2023-04-11T21:26:15.422Z,99.90
2023-04-11T21:28:43.665Z,99.90
2023-04-11T21:31:11.956Z,99.90
2023-04-11T21:33:41.531Z,99.90
2023-04-11T21:36:10.766Z,99.90
2023-04-11T21:38:39.026Z,99.90
2023-04-11T21:41:07.709Z,1.00
2023-04-11T21:43:35.967Z,1.00
2023-04-11T21:46:04.198Z,44.80
2023-04-11T21:48:32.498Z,1.00
2023-04-11T21:51:03.536Z,1.00
2023-04-11T21:53:31.805Z,1.00
2023-04-11T21:55:59.991Z,1.00
2023-04-11T21:58:29.932Z,1.00
2023-04-11T22:00:58.267Z,1.00
2023-04-11T22:03:28.847Z,1.00
2023-04-11T22:05:58.241Z,99.90
2023-04-11T22:08:29.443Z,1.00
2023-04-11T22:10:57.751Z,1.00
2023-04-11T22:13:26.158Z,1.00
2023-04-11T22:15:58.700Z,1.00
2023-04-11T22:18:27.376Z,47.10
2023-04-11T22:20:55.587Z,99.90
2023-04-11T22:23:25.232Z,99.90
2023-04-11T22:25:59.344Z,1.00
2023-04-11T22:28:28.176Z,99.90
2023-04-11T22:30:57.670Z,1.00
2023-04-11T22:33:25.956Z,1.00
2023-04-11T22:35:54.592Z,1.00
2023-04-11T22:38:24.205Z,13.50
2023-04-11T22:40:52.348Z,14.60
2023-04-11T22:43:22.561Z,99.90
2023-04-11T22:45:50.806Z,87.70
2023-04-11T22:48:19.049Z,99.90
2023-04-11T22:50:52.770Z,99.90
2023-04-11T22:53:21.107Z,99.90
2023-04-11T22:55:49.272Z,99.90
2023-04-11T22:58:17.470Z,99.90
2023-04-11T23:00:47.714Z,1.00
2023-04-11T23:03:16.230Z,1.00
2023-04-11T23:05:44.449Z,1.00
2023-04-11T23:08:12.806Z,1.00
2023-04-11T23:10:41.148Z,99.90
2023-04-11T23:13:09.377Z,1.00
2023-04-11T23:15:37.674Z,1.00
2023-04-11T23:18:08.034Z,1.00
2023-04-11T23:20:37.580Z,1.00
2023-04-11T23:23:05.814Z,99.90
2023-04-11T23:25:35.156Z,99.90
2023-04-11T23:28:03.340Z,99.90
2023-04-11T23:30:31.542Z,99.90
2023-04-11T23:33:00.298Z,1.00
2023-04-11T23:35:31.691Z,1.00
2023-04-11T23:38:01.860Z,99.90
2023-04-11T23:40:30.892Z,99.90
2023-04-11T23:42:59.152Z,99.90
2023-04-11T23:45:27.382Z,99.90
2023-04-11T23:47:56.166Z,99.90
2023-04-11T23:50:24.484Z,1.00
2023-04-11T23:52:54.881Z,1.00
2023-04-11T23:55:23.563Z,1.00
2023-04-11T23:57:51.741Z,1.00
